Time;durP1;ratioP1;P1;durP2;ratioP2;P2;SDS_P1;SDS_P2;PMS_P1;PMS_P2;Temp;Humidity;BMP_temperature;BMP_pressure;BME280_temperature;BME280_humidity;BME280_pressure;Samples;Min_cycle;Max_cycle;Signal;HPM_P1;HPM_P2
2024/03/19 00:01:17;;;;;;;;;;;10.90;84.00;;;;;;4978323;28;87369;-57
2024/03/19 00:03:42;;;;;;;;;;;10.90;84.00;;;;;;4976031;28;88057;-57
2024/03/19 00:06:08;;;;;;;;;;;10.90;83.90;;;;;;4978823;28;87460;-57
2024/03/19 00:08:33;;;;;;;;;;;10.90;83.90;;;;;;4974347;28;87353;-57
2024/03/19 00:10:59;;;;;;;;;;;10.90;84.00;;;;;;4975412;28;87005;-57
2024/03/19 00:13:25;;;;;;;;;;;10.90;83.90;;;;;;4974881;28;87695;-58
2024/03/19 00:15:51;;;;;;;;;;;10.90;84.00;;;;;;4977014;28;87004;-57
2024/03/19 00:18:17;;;;;;;;;;;10.90;84.00;;;;;;4978268;28;87797;-58
2024/03/19 00:20:42;;;;;;;;;;;10.90;83.90;;;;;;4980014;28;87175;-57
2024/03/19 00:23:08;;;;;;;;;;;10.90;84.00;;;;;;4978181;28;86826;-57
2024/03/19 00:25:35;;;;;;;;;;;10.80;84.00;;;;;;4976042;28;87615;-57
2024/03/19 00:28:01;;;;;;;;;;;10.80;84.00;;;;;;4976936;28;88007;-57
2024/03/19 00:30:27;;;;;;;;;;;10.80;84.10;;;;;;4978914;28;87705;-57
2024/03/19 00:32:52;;;;;;;;;;;10.80;83.90;;;;;;4972080;28;88469;-54
2024/03/19 00:35:18;;;;;;;;;;;10.80;84.10;;;;;;4971659;28;87043;-57
2024/03/19 00:37:44;;;;;;;;;;;10.80;84.10;;;;;;4977270;28;87044;-58
2024/03/19 00:40:12;;;;;;;;;;;10.80;84.10;;;;;;4973472;28;88858;-58
2024/03/19 00:42:39;;;;;;;;;;;10.80;84.20;;;;;;4976877;28;87039;-57
2024/03/19 00:45:04;;;;;;;;;;;10.80;84.10;;;;;;4974567;28;86713;-57
2024/03/19 00:47:30;;;;;;;;;;;10.80;84.20;;;;;;4974140;28;87670;-57
2024/03/19 00:49:56;;;;;;;;;;;10.80;84.00;;;;;;4974505;28;87010;-55
2024/03/19 00:52:21;;;;;;;;;;;10.80;84.00;;;;;;4974650;28;88604;-58
2024/03/19 00:54:47;;;;;;;;;;;10.70;84.10;;;;;;4974353;28;86981;-57
2024/03/19 00:57:13;;;;;;;;;;;10.80;84.10;;;;;;4977275;28;88100;-58
2024/03/19 00:59:38;;;;;;;;;;;10.80;84.00;;;;;;4975216;28;87403;-57
2024/03/19 01:02:06;;;;;;;;;;;10.70;84.20;;;;;;4974557;28;87134;-58
2024/03/19 01:04:33;;;;;;;;;;;10.70;84.20;;;;;;4976996;28;87363;-56
2024/03/19 01:07:00;;;;;;;;;;;10.70;84.10;;;;;;4975475;28;87072;-57
2024/03/19 01:09:27;;;;;;;;;;;10.70;84.20;;;;;;4981489;28;87875;-54
2024/03/19 01:11:56;;;;;;;;;;;10.70;84.20;;;;;;4976186;28;87627;-54
2024/03/19 01:14:21;;;;;;;;;;;10.70;84.10;;;;;;4977125;28;87044;-58
2024/03/19 01:16:47;;;;;;;;;;;10.70;84.20;;;;;;4974063;28;87985;-57
2024/03/19 01:19:13;;;;;;;;;;;10.70;84.30;;;;;;4972858;28;87375;-57
2024/03/19 01:21:38;;;;;;;;;;;10.70;84.10;;;;;;4973652;28;87125;-57
2024/03/19 01:24:05;;;;;;;;;;;10.70;84.80;;;;;;4981607;28;86978;-57
2024/03/19 01:26:30;;;;;;;;;;;10.60;84.10;;;;;;4971930;28;87890;-57
2024/03/19 01:28:56;;;;;;;;;;;10.70;84.40;;;;;;4977287;28;86995;-56
2024/03/19 01:31:22;;;;;;;;;;;10.60;84.20;;;;;;4973752;28;87667;-57
2024/03/19 01:33:48;;;;;;;;;;;10.70;84.30;;;;;;4972930;28;86922;-57
2024/03/19 01:36:13;;;;;;;;;;;10.60;84.20;;;;;;4974726;28;86953;-58
2024/03/19 01:38:39;;;;;;;;;;;10.60;84.20;;;;;;4973129;28;87410;-57
2024/03/19 01:41:05;;;;;;;;;;;10.60;84.20;;;;;;4976860;28;87893;-57
2024/03/19 01:43:30;;;;;;;;;;;10.60;84.20;;;;;;4976924;28;88877;-58
2024/03/19 01:46:15;;;;;;;;;;;10.60;84.30;;;;;;4975929;28;86884;-57
2024/03/19 01:48:40;;;;;;;;;;;10.60;84.30;;;;;;4974235;28;87746;-57
2024/03/19 01:51:07;;;;;;;;;;;10.60;84.40;;;;;;4976850;28;87675;-57
2024/03/19 01:53:32;;;;;;;;;;;10.60;84.30;;;;;;4975341;28;87013;-55
2024/03/19 01:55:58;;;;;;;;;;;10.60;84.30;;;;;;4974287;28;86950;-57
2024/03/19 01:58:24;;;;;;;;;;;10.60;84.40;;;;;;4970487;28;86696;-57
2024/03/19 02:00:50;;;;;;;;;;;10.60;84.40;;;;;;4971915;28;87394;-57
2024/03/19 02:03:16;;;;;;;;;;;10.60;84.40;;;;;;4976823;28;86898;-57
2024/03/19 02:05:45;;;;;;;;;;;10.60;84.40;;;;;;4971915;28;89307;-57
2024/03/19 02:08:11;;;;;;;;;;;10.60;84.40;;;;;;4978169;28;87083;-57
2024/03/19 02:10:38;;;;;;;;;;;10.50;84.40;;;;;;4973139;28;88612;-57
2024/03/19 02:13:03;;;;;;;;;;;10.60;85.00;;;;;;4974463;28;87879;-57
2024/03/19 02:15:29;;;;;;;;;;;10.60;84.40;;;;;;4973039;28;86921;-57
2024/03/19 02:17:55;;;;;;;;;;;10.50;84.40;;;;;;4973946;28;87283;-57
2024/03/19 02:20:21;;;;;;;;;;;10.60;84.50;;;;;;4979480;28;86966;-57
2024/03/19 02:22:47;;;;;;;;;;;10.50;84.50;;;;;;4971046;28;86221;-57
2024/03/19 02:25:13;;;;;;;;;;;10.50;84.50;;;;;;4974986;28;88618;-57
2024/03/19 02:27:40;;;;;;;;;;;10.50;84.60;;;;;;4979516;28;86989;-57
2024/03/19 02:30:06;;;;;;;;;;;10.50;84.50;;;;;;4977212;28;88869;-57
2024/03/19 02:32:32;;;;;;;;;;;10.50;84.50;;;;;;4973871;28;86996;-56
2024/03/19 02:34:57;;;;;;;;;;;10.50;84.50;;;;;;4975732;28;87013;-57
2024/03/19 02:37:23;;;;;;;;;;;10.50;84.50;;;;;;4974410;28;87519;-56
2024/03/19 02:39:48;;;;;;;;;;;10.50;84.50;;;;;;4972007;28;87673;-56
2024/03/19 02:42:14;;;;;;;;;;;10.50;84.60;;;;;;4974976;28;87327;-57
2024/03/19 02:44:40;;;;;;;;;;;10.40;84.50;;;;;;4971462;28;87588;-57
2024/03/19 02:47:05;;;;;;;;;;;10.40;84.60;;;;;;4973225;28;87847;-57
2024/03/19 02:49:31;;;;;;;;;;;10.40;84.50;;;;;;4973912;28;87294;-57
2024/03/19 02:51:57;;;;;;;;;;;10.40;84.60;;;;;;4976028;28;87641;-57
2024/03/19 02:54:22;;;;;;;;;;;10.50;84.70;;;;;;4975957;28;87820;-57
2024/03/19 02:56:48;;;;;;;;;;;10.40;84.70;;;;;;4973559;28;89065;-57
2024/03/19 02:59:13;;;;;;;;;;;10.40;84.50;;;;;;4966810;28;87663;-57
2024/03/19 03:01:39;;;;;;;;;;;10.40;84.60;;;;;;4971492;28;87389;-56
2024/03/19 03:04:04;;;;;;;;;;;10.40;84.60;;;;;;4977122;28;87599;-57
2024/03/19 03:06:30;;;;;;;;;;;10.40;84.60;;;;;;4974433;28;87032;-57
2024/03/19 03:08:56;;;;;;;;;;;10.40;84.60;;;;;;4974831;28;87435;-54
2024/03/19 03:11:21;;;;;;;;;;;10.40;85.20;;;;;;4979411;28;87929;-57
2024/03/19 03:13:47;;;;;;;;;;;10.40;84.60;;;;;;4972585;28;87216;-57
2024/03/19 03:16:13;;;;;;;;;;;10.40;84.70;;;;;;4978100;28;88598;-57
2024/03/19 03:18:39;;;;;;;;;;;10.40;84.70;;;;;;4975848;28;88439;-56
2024/03/19 03:21:05;;;;;;;;;;;10.40;84.70;;;;;;4976609;28;88994;-57
2024/03/19 03:23:31;;;;;;;;;;;10.40;84.70;;;;;;4992243;28;90338;-57
2024/03/19 03:25:56;;;;;;;;;;;10.30;84.70;;;;;;4974857;28;86935;-55
2024/03/19 03:28:23;;;;;;;;;;;10.40;84.70;;;;;;4980631;28;88149;-57
2024/03/19 03:30:49;;;;;;;;;;;10.30;84.70;;;;;;4979545;28;87988;-57
2024/03/19 03:33:15;;;;;;;;;;;10.40;84.90;;;;;;4981586;28;87107;-57
2024/03/19 03:35:40;;;;;;;;;;;10.30;84.80;;;;;;4977586;28;86877;-57
2024/03/19 03:38:06;;;;;;;;;;;10.30;84.80;;;;;;4976196;28;87714;-57
2024/03/19 03:40:31;;;;;;;;;;;10.30;84.80;;;;;;4977414;28;86968;-57
2024/03/19 03:42:59;;;;;;;;;;;10.40;84.70;;;;;;4973905;28;88675;-55
2024/03/19 03:45:24;;;;;;;;;;;10.40;84.70;;;;;;4976381;28;86964;-57
2024/03/19 03:47:50;;;;;;;;;;;10.30;84.80;;;;;;4979566;28;86929;-57
2024/03/19 03:50:16;;;;;;;;;;;10.30;84.70;;;;;;4978280;28;87604;-57
2024/03/19 03:52:42;;;;;;;;;;;10.30;84.80;;;;;;4975558;28;87337;-56
2024/03/19 03:55:09;;;;;;;;;;;10.30;84.80;;;;;;4984576;28;87880;-57
2024/03/19 03:57:35;;;;;;;;;;;10.30;84.90;;;;;;4976234;28;86890;-57
2024/03/19 04:00:08;;;;;;;;;;;10.30;84.80;;;;;;4978062;28;88080;-57
2024/03/19 04:02:33;;;;;;;;;;;10.30;84.80;;;;;;4979791;28;88600;-57
2024/03/19 04:04:59;;;;;;;;;;;10.30;84.80;;;;;;4976220;28;86951;-57
2024/03/19 04:07:25;;;;;;;;;;;10.20;84.80;;;;;;4976325;28;87936;-57
2024/03/19 04:09:50;;;;;;;;;;;10.20;85.00;;;;;;4975326;28;88339;-57
2024/03/19 04:12:16;;;;;;;;;;;10.20;85.00;;;;;;4969524;28;87813;-57
2024/03/19 04:15:00;;;;;;;;;;;10.20;84.90;;;;;;4978458;28;87041;-57
2024/03/19 04:17:27;;;;;;;;;;;10.20;85.00;;;;;;4979026;28;87690;-52
2024/03/19 04:19:53;;;;;;;;;;;10.20;84.90;;;;;;4973626;28;87132;-57
2024/03/19 04:22:18;;;;;;;;;;;10.20;84.90;;;;;;4979864;28;88551;-57
2024/03/19 04:24:44;;;;;;;;;;;10.20;84.90;;;;;;4974731;28;86322;-57
2024/03/19 04:27:09;;;;;;;;;;;10.20;85.00;;;;;;4974055;28;87070;-57
2024/03/19 04:29:35;;;;;;;;;;;10.20;85.10;;;;;;4974765;28;87069;-57
2024/03/19 04:32:03;;;;;;;;;;;10.10;85.10;;;;;;4975147;28;88618;-55
2024/03/19 04:34:29;;;;;;;;;;;10.10;85.10;;;;;;4978421;28;88064;-57
2024/03/19 04:36:54;;;;;;;;;;;10.10;85.20;;;;;;4974768;28;88553;-56
2024/03/19 04:39:21;;;;;;;;;;;10.10;85.10;;;;;;4981778;28;87109;-52
2024/03/19 04:41:47;;;;;;;;;;;10.10;85.20;;;;;;4974026;28;88592;-57
2024/03/19 04:44:13;;;;;;;;;;;10.10;85.10;;;;;;4978456;28;87029;-58
2024/03/19 04:46:39;;;;;;;;;;;10.10;85.10;;;;;;4972058;28;87010;-58
2024/03/19 04:49:05;;;;;;;;;;;10.10;85.10;;;;;;4975561;28;86813;-59
2024/03/19 04:51:31;;;;;;;;;;;10.10;85.10;;;;;;4973952;28;87675;-57
2024/03/19 04:53:57;;;;;;;;;;;10.10;85.10;;;;;;4976319;28;87059;-57
2024/03/19 04:56:22;;;;;;;;;;;10.10;85.20;;;;;;4974620;28;88323;-57
2024/03/19 04:58:48;;;;;;;;;;;10.10;85.20;;;;;;4974070;28;86950;-57
2024/03/19 05:01:15;;;;;;;;;;;10.00;85.80;;;;;;4982638;28;86922;-57
2024/03/19 05:03:41;;;;;;;;;;;10.10;85.30;;;;;;4978532;28;86970;-58
2024/03/19 05:06:08;;;;;;;;;;;10.10;85.20;;;;;;4975349;28;87906;-58
2024/03/19 05:08:34;;;;;;;;;;;10.10;85.20;;;;;;4977142;28;88839;-57
2024/03/19 05:10:59;;;;;;;;;;;10.00;85.20;;;;;;4976078;28;87124;-57
2024/03/19 05:13:25;;;;;;;;;;;10.00;85.20;;;;;;4980843;28;86567;-58
2024/03/19 05:15:51;;;;;;;;;;;10.10;85.30;;;;;;4977737;28;87704;-57
2024/03/19 05:18:16;;;;;;;;;;;10.10;85.30;;;;;;4975210;28;87812;-58
2024/03/19 05:20:42;;;;;;;;;;;10.00;85.30;;;;;;4978543;28;87928;-58
2024/03/19 05:23:07;;;;;;;;;;;10.00;85.20;;;;;;4973393;28;86947;-58
2024/03/19 05:25:33;;;;;;;;;;;10.00;85.30;;;;;;4974923;28;88219;-58
2024/03/19 05:27:58;;;;;;;;;;;10.00;85.30;;;;;;4974972;28;87318;-55
2024/03/19 05:30:26;;;;;;;;;;;10.00;85.30;;;;;;4977636;28;87036;-56
2024/03/19 05:32:51;;;;;;;;;;;10.00;85.30;;;;;;4975939;28;87929;-57
2024/03/19 05:35:17;;;;;;;;;;;10.00;85.30;;;;;;4974228;28;87444;-58
2024/03/19 05:37:42;;;;;;;;;;;10.00;85.30;;;;;;4975302;28;86795;-58
2024/03/19 05:40:09;;;;;;;;;;;10.00;85.40;;;;;;4974513;28;86924;-56
2024/03/19 05:42:36;;;;;;;;;;;10.00;85.40;;;;;;4975429;28;88616;-58
2024/03/19 05:45:02;;;;;;;;;;;10.00;85.40;;;;;;4974325;28;88037;-58
2024/03/19 05:47:28;;;;;;;;;;;10.00;85.40;;;;;;4978583;28;87749;-57
2024/03/19 05:49:54;;;;;;;;;;;10.00;85.40;;;;;;4974237;28;87029;-54
2024/03/19 05:52:20;;;;;;;;;;;10.00;85.40;;;;;;4982756;28;87043;-58
2024/03/19 05:54:46;;;;;;;;;;;10.00;85.50;;;;;;4975822;28;88539;-57
2024/03/19 05:57:11;;;;;;;;;;;10.00;85.50;;;;;;4973291;28;87261;-58
2024/03/19 05:59:37;;;;;;;;;;;10.00;85.50;;;;;;4975233;28;86889;-58
2024/03/19 06:02:06;;;;;;;;;;;9.90;85.50;;;;;;4974970;28;86999;-57
2024/03/19 06:04:32;;;;;;;;;;;9.90;85.50;;;;;;4979579;28;87156;-58
2024/03/19 06:06:57;;;;;;;;;;;10.00;85.50;;;;;;4976649;28;87469;-56
2024/03/19 06:09:23;;;;;;;;;;;9.90;85.50;;;;;;4976356;28;88310;-58
2024/03/19 06:11:49;;;;;;;;;;;9.90;85.50;;;;;;4975151;28;89364;-58
2024/03/19 06:14:14;;;;;;;;;;;9.90;85.50;;;;;;4977987;28;86973;-58
2024/03/19 06:16:40;;;;;;;;;;;9.90;85.50;;;;;;4976149;28;87004;-58
2024/03/19 06:19:06;;;;;;;;;;;9.90;85.50;;;;;;4972901;28;87019;-58
2024/03/19 06:21:32;;;;;;;;;;;9.90;85.50;;;;;;4974848;28;88832;-58
2024/03/19 06:23:59;;;;;;;;;;;9.90;85.60;;;;;;4973155;28;87109;-57
2024/03/19 06:26:24;;;;;;;;;;;9.90;85.50;;;;;;4973450;28;87918;-56
2024/03/19 06:28:50;;;;;;;;;;;9.90;85.60;;;;;;4974783;28;87025;-58
2024/03/19 06:31:15;;;;;;;;;;;9.90;85.60;;;;;;4976310;28;86956;-57
2024/03/19 06:33:41;;;;;;;;;;;9.90;85.60;;;;;;4974991;28;88614;-56
2024/03/19 06:36:07;;;;;;;;;;;9.90;85.60;;;;;;4970656;28;87085;-58
2024/03/19 06:38:33;;;;;;;;;;;9.90;85.60;;;;;;4970063;28;86972;-57
2024/03/19 06:40:58;;;;;;;;;;;9.80;85.60;;;;;;4974573;28;87390;-57
2024/03/19 06:43:24;;;;;;;;;;;9.90;85.60;;;;;;4974849;28;87097;-54
2024/03/19 06:45:49;;;;;;;;;;;9.80;85.70;;;;;;4978367;28;86956;-57
2024/03/19 06:48:15;;;;;;;;;;;9.80;85.70;;;;;;4976668;28;87390;-58
2024/03/19 06:50:41;;;;;;;;;;;9.80;85.60;;;;;;4973675;28;86713;-58
2024/03/19 06:53:06;;;;;;;;;;;9.80;85.70;;;;;;4972029;28;87593;-58
2024/03/19 06:55:32;;;;;;;;;;;9.80;85.70;;;;;;4970332;28;87987;-58
2024/03/19 06:57:58;;;;;;;;;;;9.80;85.70;;;;;;4973961;28;87969;-58
2024/03/19 07:00:23;;;;;;;;;;;9.80;85.70;;;;;;4977530;28;87056;-58
2024/03/19 07:02:51;;;;;;;;;;;9.80;85.80;;;;;;4974755;28;86967;-57
2024/03/19 07:05:18;;;;;;;;;;;9.80;86.00;;;;;;4973428;28;87956;-57
2024/03/19 07:07:44;;;;;;;;;;;9.80;85.80;;;;;;4976105;28;87389;-58
2024/03/19 07:10:10;;;;;;;;;;;9.80;85.80;;;;;;4981887;28;87083;-58
2024/03/19 07:12:37;;;;;;;;;;;9.80;85.80;;;;;;4972784;28;87004;-59
2024/03/19 07:15:09;;;;;;;;;;;9.80;85.80;;;;;;4974801;28;86272;-59
2024/03/19 07:17:36;;;;;;;;;;;9.80;85.80;;;;;;4972893;28;87274;-59
2024/03/19 07:20:02;;;;;;;;;;;9.80;85.80;;;;;;4975141;28;88823;-56
2024/03/19 07:22:28;;;;;;;;;;;9.80;85.90;;;;;;4971777;28;87868;-57
2024/03/19 07:24:53;;;;;;;;;;;9.80;86.00;;;;;;4969472;28;87995;-58
2024/03/19 07:27:19;;;;;;;;;;;9.80;86.00;;;;;;4973302;28;88314;-58
2024/03/19 07:29:45;;;;;;;;;;;9.80;86.00;;;;;;4978669;28;87027;-58
2024/03/19 07:32:11;;;;;;;;;;;9.70;85.90;;;;;;4975625;28;88747;-58
2024/03/19 07:34:37;;;;;;;;;;;9.70;86.00;;;;;;4972317;28;86991;-58
2024/03/19 07:37:03;;;;;;;;;;;9.70;86.00;;;;;;4972498;28;87970;-58
2024/03/19 07:39:29;;;;;;;;;;;9.70;86.00;;;;;;4972584;28;87088;-58
2024/03/19 07:41:55;;;;;;;;;;;9.70;85.90;;;;;;4975639;28;87055;-57
2024/03/19 07:44:20;;;;;;;;;;;9.70;85.90;;;;;;4972524;28;86956;-59
2024/03/19 07:46:46;;;;;;;;;;;9.70;85.90;;;;;;4969826;28;88765;-59
2024/03/19 07:49:11;;;;;;;;;;;9.70;85.90;;;;;;4971911;28;86972;-59
2024/03/19 07:51:37;;;;;;;;;;;9.70;86.00;;;;;;4976015;28;86953;-59
2024/03/19 07:54:02;;;;;;;;;;;9.70;86.00;;;;;;4972442;28;86988;-58
2024/03/19 07:56:30;;;;;;;;;;;9.70;86.10;;;;;;4971408;28;87520;-58
2024/03/19 07:58:56;;;;;;;;;;;9.70;86.00;;;;;;4975692;28;87670;-59
2024/03/19 08:01:22;;;;;;;;;;;9.70;86.00;;;;;;4970399;28;87107;-59
2024/03/19 08:03:47;;;;;;;;;;;9.70;86.00;;;;;;4975823;28;86218;-59
2024/03/19 08:06:13;;;;;;;;;;;9.70;86.00;;;;;;4976135;28;88528;-60
2024/03/19 08:08:38;;;;;;;;;;;9.70;86.10;;;;;;4975397;28;87265;-60
2024/03/19 08:11:05;;;;;;;;;;;9.70;86.10;;;;;;4978059;28;87835;-59
2024/03/19 08:13:30;;;;;;;;;;;9.70;86.10;;;;;;4977304;28;86950;-59
2024/03/19 08:15:56;;;;;;;;;;;9.70;86.10;;;;;;4977015;28;88488;-59
2024/03/19 08:18:22;;;;;;;;;;;9.70;86.00;;;;;;4978442;28;87724;-60
2024/03/19 08:20:48;;;;;;;;;;;9.60;86.00;;;;;;4976268;28;87011;-60
2024/03/19 08:23:15;;;;;;;;;;;9.60;86.00;;;;;;4980202;28;86992;-59
2024/03/19 08:25:41;;;;;;;;;;;9.70;86.10;;;;;;4972795;28;88707;-60
2024/03/19 08:28:07;;;;;;;;;;;9.60;86.10;;;;;;4971659;28;87165;-60
2024/03/19 08:30:33;;;;;;;;;;;9.60;86.00;;;;;;4973891;28;87744;-60
2024/03/19 08:32:59;;;;;;;;;;;9.70;86.10;;;;;;4980877;28;87559;-60
2024/03/19 08:35:24;;;;;;;;;;;9.60;86.00;;;;;;4979476;28;88960;-56
2024/03/19 08:37:50;;;;;;;;;;;9.70;86.00;;;;;;4971742;28;87730;-60
2024/03/19 08:40:16;;;;;;;;;;;9.60;86.00;;;;;;4974071;28;87119;-60
2024/03/19 08:42:41;;;;;;;;;;;9.60;86.00;;;;;;4976013;28;87208;-60
2024/03/19 08:45:10;;;;;;;;;;;9.60;86.00;;;;;;4974831;28;87815;-60
2024/03/19 08:47:37;;;;;;;;;;;9.60;86.00;;;;;;4973667;28;86985;-59
2024/03/19 08:50:02;;;;;;;;;;;9.60;86.10;;;;;;4972525;28;86992;-60
2024/03/19 08:52:28;;;;;;;;;;;9.60;86.10;;;;;;4973275;28;86801;-60
2024/03/19 08:54:54;;;;;;;;;;;9.60;86.20;;;;;;4980402;28;87000;-60
2024/03/19 08:57:19;;;;;;;;;;;9.60;86.00;;;;;;4977390;28;88347;-61
2024/03/19 08:59:46;;;;;;;;;;;9.60;86.00;;;;;;4978861;28;88021;-61
2024/03/19 09:02:11;;;;;;;;;;;9.60;86.00;;;;;;4972807;28;89256;-61
2024/03/19 09:04:37;;;;;;;;;;;9.50;86.00;;;;;;4976392;28;87864;-61
2024/03/19 09:07:03;;;;;;;;;;;9.60;86.10;;;;;;4979775;28;87006;-60
2024/03/19 09:09:29;;;;;;;;;;;9.60;86.00;;;;;;4975387;28;87006;-60
2024/03/19 09:11:55;;;;;;;;;;;9.60;86.10;;;;;;4977311;28;87516;-57
2024/03/19 09:14:20;;;;;;;;;;;9.60;86.20;;;;;;4971909;28;86956;-60
2024/03/19 09:16:46;;;;;;;;;;;9.50;86.10;;;;;;4977317;28;87947;-60
2024/03/19 09:19:12;;;;;;;;;;;9.50;86.10;;;;;;4974249;28;87016;-60
2024/03/19 09:21:37;;;;;;;;;;;9.50;86.10;;;;;;4977153;28;87872;-61
2024/03/19 09:24:03;;;;;;;;;;;9.50;86.60;;;;;;4974915;28;88550;-61
2024/03/19 09:26:29;;;;;;;;;;;9.50;86.10;;;;;;4976864;28;86913;-60
2024/03/19 09:28:58;;;;;;;;;;;9.50;86.10;;;;;;4974182;28;87773;-58
2024/03/19 09:31:23;;;;;;;;;;;9.50;86.00;;;;;;4974395;28;88543;-61
2024/03/19 09:33:49;;;;;;;;;;;9.50;86.00;;;;;;4975998;28;87219;-60
2024/03/19 09:36:15;;;;;;;;;;;9.50;86.10;;;;;;4972512;28;87879;-59
2024/03/19 09:38:42;;;;;;;;;;;9.50;86.00;;;;;;4979669;28;88491;-60
2024/03/19 09:41:08;;;;;;;;;;;9.50;86.00;;;;;;4970485;28;86743;-61
2024/03/19 09:43:38;;;;;;;;;;;9.50;86.00;;;;;;4974313;28;87745;-60
2024/03/19 09:46:04;;;;;;;;;;;9.40;86.00;;;;;;4972905;28;87190;-61
2024/03/19 09:48:32;;;;;;;;;;;9.50;86.00;;;;;;4974394;28;87916;-61
2024/03/19 09:50:58;;;;;;;;;;;9.50;86.00;;;;;;4971622;28;87513;-59
2024/03/19 09:53:26;;;;;;;;;;;9.40;85.90;;;;;;4974726;28;87053;-60
2024/03/19 09:55:52;;;;;;;;;;;9.50;86.00;;;;;;4977032;28;87986;-60
2024/03/19 09:58:19;;;;;;;;;;;9.40;85.90;;;;;;4977094;28;87709;-60
2024/03/19 10:00:48;;;;;;;;;;;9.50;86.00;;;;;;4974637;28;87405;-60
2024/03/19 10:03:14;;;;;;;;;;;9.40;85.90;;;;;;4972651;28;88902;-60
2024/03/19 10:05:40;;;;;;;;;;;9.40;85.90;;;;;;4974015;28;86555;-61
2024/03/19 10:08:06;;;;;;;;;;;9.40;86.00;;;;;;4975482;28;87044;-60
2024/03/19 10:10:32;;;;;;;;;;;9.40;85.90;;;;;;4974372;28;88561;-60
2024/03/19 10:12:59;;;;;;;;;;;9.40;85.90;;;;;;4975863;28;88058;-58
2024/03/19 10:15:25;;;;;;;;;;;9.40;85.80;;;;;;4971722;28;88756;-60
2024/03/19 10:17:51;;;;;;;;;;;9.40;85.80;;;;;;4974641;28;87658;-61
2024/03/19 10:20:17;;;;;;;;;;;9.40;85.80;;;;;;4977041;28;87024;-61
2024/03/19 10:22:43;;;;;;;;;;;9.40;85.90;;;;;;4977269;28;87424;-58
2024/03/19 10:25:12;;;;;;;;;;;9.40;86.10;;;;;;4968389;28;88333;-60
2024/03/19 10:27:44;;;;;;;;;;;9.30;85.90;;;;;;4972087;28;86955;-58
2024/03/19 10:30:14;;;;;;;;;;;9.40;86.00;;;;;;4974272;28;87246;-60
2024/03/19 10:32:44;;;;;;;;;;;9.30;86.00;;;;;;4973549;28;86941;-59
2024/03/19 10:35:15;;;;;;;;;;;9.40;85.90;;;;;;4971942;28;87954;-61
2024/03/19 10:37:41;;;;;;;;;;;9.40;85.80;;;;;;4974596;28;88613;-61
2024/03/19 10:40:11;;;;;;;;;;;9.30;85.80;;;;;;4972807;28;87064;-60
2024/03/19 10:42:37;;;;;;;;;;;9.40;85.70;;;;;;4981530;28;89554;-60
2024/03/19 10:45:04;;;;;;;;;;;9.40;85.70;;;;;;4976633;28;87943;-62
2024/03/19 10:47:30;;;;;;;;;;;9.40;85.60;;;;;;4971421;28;86996;-60
2024/03/19 10:49:55;;;;;;;;;;;9.40;85.50;;;;;;4975845;28;87695;-58
2024/03/19 10:52:24;;;;;;;;;;;9.40;85.50;;;;;;4975974;28;87347;-61
2024/03/19 10:54:51;;;;;;;;;;;9.40;85.50;;;;;;4973290;28;88817;-60
2024/03/19 10:57:17;;;;;;;;;;;9.40;85.50;;;;;;4973438;28;88391;-60
2024/03/19 10:59:43;;;;;;;;;;;9.40;85.40;;;;;;4975710;28;86965;-60
2024/03/19 11:02:16;;;;;;;;;;;9.40;85.30;;;;;;4971762;28;87824;-61
2024/03/19 11:04:41;;;;;;;;;;;9.40;85.40;;;;;;4976917;28;87647;-59
2024/03/19 11:07:21;;;;;;;;;;;9.40;85.50;;;;;;4972108;28;87012;-60
2024/03/19 11:09:50;;;;;;;;;;;9.40;85.50;;;;;;4969758;28;87608;-59
2024/03/19 11:12:17;;;;;;;;;;;9.40;85.50;;;;;;4973480;28;87069;-60
2024/03/19 11:14:53;;;;;;;;;;;9.30;85.50;;;;;;4974796;28;87828;-60
2024/03/19 11:17:18;;;;;;;;;;;9.40;85.60;;;;;;4970552;28;88662;-59
2024/03/19 11:19:52;;;;;;;;;;;9.30;85.60;;;;;;4977301;28;86233;-60
2024/03/19 11:22:19;;;;;;;;;;;9.30;85.60;;;;;;4977246;28;86948;-60
2024/03/19 11:24:44;;;;;;;;;;;9.30;85.60;;;;;;4974768;28;88489;-59
2024/03/19 11:27:15;;;;;;;;;;;9.30;85.60;;;;;;4980261;28;88260;-60
2024/03/19 11:29:41;;;;;;;;;;;9.30;85.50;;;;;;4973267;28;87441;-60
2024/03/19 11:32:06;;;;;;;;;;;9.30;85.60;;;;;;4974596;28;87156;-59
2024/03/19 11:34:32;;;;;;;;;;;9.40;85.50;;;;;;4972673;28;87818;-60
2024/03/19 11:36:59;;;;;;;;;;;9.40;85.40;;;;;;4978950;28;87607;-55
2024/03/19 11:39:24;;;;;;;;;;;9.40;85.40;;;;;;4974636;28;87047;-60
2024/03/19 11:41:50;;;;;;;;;;;9.40;85.30;;;;;;4977894;28;87023;-59
2024/03/19 11:44:19;;;;;;;;;;;9.40;85.40;;;;;;4976305;28;87830;-60
2024/03/19 11:46:46;;;;;;;;;;;9.40;85.20;;;;;;4976504;28;87675;-59
2024/03/19 11:49:21;;;;;;;;;;;9.40;85.40;;;;;;4976081;28;87284;-59
2024/03/19 11:52:00;;;;;;;;;;;9.40;85.30;;;;;;4974380;28;88383;-57
2024/03/19 11:54:26;;;;;;;;;;;9.40;85.40;;;;;;4980834;28;87742;-60
2024/03/19 11:56:55;;;;;;;;;;;9.40;85.30;;;;;;4973892;28;87865;-60
2024/03/19 11:59:31;;;;;;;;;;;9.40;85.30;;;;;;4976262;28;87048;-60
2024/03/19 12:01:57;;;;;;;;;;;9.40;85.30;;;;;;4977333;28;88133;-59
2024/03/19 12:04:23;;;;;;;;;;;9.40;85.30;;;;;;4973923;28;88329;-60
2024/03/19 12:06:49;;;;;;;;;;;9.40;85.30;;;;;;4978844;28;87135;-59
2024/03/19 12:09:19;;;;;;;;;;;9.40;85.10;;;;;;4976555;28;87001;-60
2024/03/19 12:11:44;;;;;;;;;;;9.50;85.80;;;;;;4978269;28;87457;-57
2024/03/19 12:14:14;;;;;;;;;;;9.50;85.30;;;;;;4975802;28;87781;-60
2024/03/19 12:16:40;;;;;;;;;;;9.50;85.20;;;;;;4967880;28;88767;-59
2024/03/19 12:19:08;;;;;;;;;;;9.50;85.10;;;;;;4973875;28;87227;-60
2024/03/19 12:21:38;;;;;;;;;;;9.50;85.00;;;;;;4979959;28;86913;-60
2024/03/19 12:24:04;;;;;;;;;;;9.50;84.90;;;;;;4976099;28;87518;-60
2024/03/19 12:26:29;;;;;;;;;;;9.60;84.90;;;;;;4973807;28;87719;-59
2024/03/19 12:28:55;;;;;;;;;;;9.60;84.70;;;;;;4976724;28;87076;-59
2024/03/19 12:31:24;;;;;;;;;;;9.60;84.70;;;;;;4978997;28;88125;-59
2024/03/19 12:34:05;;;;;;;;;;;9.60;84.70;;;;;;4980045;28;86322;-55
2024/03/19 12:36:30;;;;;;;;;;;9.60;84.80;;;;;;4976321;28;88529;-60
2024/03/19 12:38:56;;;;;;;;;;;9.50;84.70;;;;;;4974923;28;86973;-56
2024/03/19 12:41:22;;;;;;;;;;;9.50;84.70;;;;;;4973033;28;88793;-59
2024/03/19 12:43:49;;;;;;;;;;;9.50;84.80;;;;;;4975708;28;88575;-59
2024/03/19 12:46:15;;;;;;;;;;;9.50;84.80;;;;;;4977377;28;87091;-59
2024/03/19 12:48:41;;;;;;;;;;;9.60;84.80;;;;;;4975801;28;87949;-59
2024/03/19 12:51:07;;;;;;;;;;;9.50;84.90;;;;;;4972995;28;87464;-60
2024/03/19 12:53:33;;;;;;;;;;;9.50;84.90;;;;;;4973546;28;87405;-58
2024/03/19 12:56:00;;;;;;;;;;;9.50;84.90;;;;;;4984251;28;88058;-58
2024/03/19 12:58:26;;;;;;;;;;;9.50;84.80;;;;;;4978076;28;86233;-55
2024/03/19 13:00:52;;;;;;;;;;;9.50;84.90;;;;;;4974827;28;87100;-59
2024/03/19 13:03:18;;;;;;;;;;;9.50;84.90;;;;;;4977677;28;87393;-59
2024/03/19 13:05:44;;;;;;;;;;;9.50;84.90;;;;;;4975652;28;87935;-59
2024/03/19 13:08:09;;;;;;;;;;;9.50;84.80;;;;;;4977793;28;88772;-59
2024/03/19 13:10:35;;;;;;;;;;;9.50;84.80;;;;;;4974192;28;87013;-57
2024/03/19 13:13:00;;;;;;;;;;;9.60;84.80;;;;;;4979250;28;87796;-59
2024/03/19 13:15:26;;;;;;;;;;;9.60;84.80;;;;;;4972819;28;87836;-53
2024/03/19 13:17:52;;;;;;;;;;;9.50;84.80;;;;;;4980681;28;87961;-59
2024/03/19 13:20:18;;;;;;;;;;;9.50;84.90;;;;;;4974532;28;87790;-59
2024/03/19 13:22:44;;;;;;;;;;;9.50;84.80;;;;;;4976970;28;86541;-59
2024/03/19 13:25:10;;;;;;;;;;;9.50;84.90;;;;;;4972913;28;87099;-58
2024/03/19 13:27:35;;;;;;;;;;;9.50;84.90;;;;;;4977590;28;87701;-59
2024/03/19 13:30:03;;;;;;;;;;;9.50;85.00;;;;;;4972917;28;88319;-59
2024/03/19 13:32:30;;;;;;;;;;;9.50;85.00;;;;;;4973547;28;87545;-57
2024/03/19 13:34:55;;;;;;;;;;;9.50;85.10;;;;;;4978488;28;87700;-59
2024/03/19 13:37:21;;;;;;;;;;;9.50;85.00;;;;;;4977779;28;87403;-58
2024/03/19 13:39:48;;;;;;;;;;;9.50;84.80;;;;;;4978553;28;86909;-57
2024/03/19 13:42:13;;;;;;;;;;;9.50;84.80;;;;;;4975127;28;88506;-58
2024/03/19 13:44:39;;;;;;;;;;;9.50;84.70;;;;;;4980399;28;87412;-58
2024/03/19 13:47:05;;;;;;;;;;;9.50;84.60;;;;;;4973896;28;87282;-59
2024/03/19 13:49:30;;;;;;;;;;;9.50;84.60;;;;;;4976241;28;87401;-58
2024/03/19 13:51:56;;;;;;;;;;;9.50;84.60;;;;;;4971933;28;87305;-55
2024/03/19 13:54:22;;;;;;;;;;;9.50;84.80;;;;;;4975923;28;88001;-59
2024/03/19 13:56:49;;;;;;;;;;;9.50;85.40;;;;;;4970463;28;87230;-58
2024/03/19 13:59:14;;;;;;;;;;;9.50;84.80;;;;;;4978639;28;87602;-58
2024/03/19 14:01:41;;;;;;;;;;;9.50;84.80;;;;;;4977408;28;87669;-58
2024/03/19 14:04:06;;;;;;;;;;;9.50;84.80;;;;;;4975764;28;87020;-58
2024/03/19 14:06:32;;;;;;;;;;;9.40;84.90;;;;;;4975525;28;87039;-58
2024/03/19 14:08:57;;;;;;;;;;;9.50;84.90;;;;;;4977340;28;88985;-58
2024/03/19 14:11:24;;;;;;;;;;;9.50;85.00;;;;;;4976662;28;86603;-58
2024/03/19 14:13:51;;;;;;;;;;;9.50;85.00;;;;;;4971779;28;87372;-58
2024/03/19 14:16:18;;;;;;;;;;;9.50;84.90;;;;;;4973936;28;88549;-58
2024/03/19 14:18:44;;;;;;;;;;;9.50;85.00;;;;;;4976176;28;87905;-58